sensor_id;sensor_type;location;lat;lon;timestamp;temperature;humidity
21189;DHT22;39071;52.420;20.896;2023-04-03T00:00:05;2.20;99.90
21189;DHT22;39071;52.420;20.896;2023-04-03T00:02:31;2.20;99.90
21189;DHT22;39071;52.420;20.896;2023-04-03T00:04:56;2.10;98.90
21189;DHT22;39071;52.420;20.896;2023-04-03T00:07:22;2.10;99.90
21189;DHT22;39071;52.420;20.896;2023-04-03T00:09:48;2.10;99.90
21189;DHT22;39071;52.420;20.896;2023-04-03T00:12:13;2.00;96.40
21189;DHT22;39071;52.420;20.896;2023-04-03T00:14:39;2.00;99.00
21189;DHT22;39071;52.420;20.896;2023-04-03T00:17:05;1.90;92.60
21189;DHT22;39071;52.420;20.896;2023-04-03T00:19:31;2.00;87.30
21189;DHT22;39071;52.420;20.896;2023-04-03T00:21:56;1.90;93.80
21189;DHT22;39071;52.420;20.896;2023-04-03T00:24:22;1.80;96.20
21189;DHT22;39071;52.420;20.896;2023-04-03T00:26:48;1.80;90.60
21189;DHT22;39071;52.420;20.896;2023-04-03T00:29:14;1.80;99.90
21189;DHT22;39071;52.420;20.896;2023-04-03T00:31:40;1.80;96.00
21189;DHT22;39071;52.420;20.896;2023-04-03T00:34:06;1.80;99.90
21189;DHT22;39071;52.420;20.896;2023-04-03T00:36:31;1.80;99.90
21189;DHT22;39071;52.420;20.896;2023-04-03T00:38:57;1.70;90.40
21189;DHT22;39071;52.420;20.896;2023-04-03T00:41:23;1.70;98.80
21189;DHT22;39071;52.420;20.896;2023-04-03T00:43:48;1.70;99.90
21189;DHT22;39071;52.420;20.896;2023-04-03T00:46:14;1.70;99.90
21189;DHT22;39071;52.420;20.896;2023-04-03T00:48:45;1.60;81.80
21189;DHT22;39071;52.420;20.896;2023-04-03T00:51:19;1.60;90.60
21189;DHT22;39071;52.420;20.896;2023-04-03T00:53:50;1.60;94.70
21189;DHT22;39071;52.420;20.896;2023-04-03T00:56:21;1.60;67.40
21189;DHT22;39071;52.420;20.896;2023-04-03T00:58:54;1.50;92.70
21189;DHT22;39071;52.420;20.896;2023-04-03T01:01:23;1.50;92.30
21189;DHT22;39071;52.420;20.896;2023-04-03T01:03:49;1.50;88.80
21189;DHT22;39071;52.420;20.896;2023-04-03T01:06:17;1.50;94.00
21189;DHT22;39071;52.420;20.896;2023-04-03T01:08:44;1.50;84.20
21189;DHT22;39071;52.420;20.896;2023-04-03T01:11:12;1.40;95.90
21189;DHT22;39071;52.420;20.896;2023-04-03T01:13:38;1.40;88.40
21189;DHT22;39071;52.420;20.896;2023-04-03T01:16:04;1.40;98.10
21189;DHT22;39071;52.420;20.896;2023-04-03T01:18:31;1.40;99.90
21189;DHT22;39071;52.420;20.896;2023-04-03T01:26:34;1.30;99.90
21189;DHT22;39071;52.420;20.896;2023-04-03T01:29:02;1.30;99.90
21189;DHT22;39071;52.420;20.896;2023-04-03T01:34:00;1.30;99.90
21189;DHT22;39071;52.420;20.896;2023-04-03T01:36:30;1.30;99.90
21189;DHT22;39071;52.420;20.896;2023-04-03T01:38:58;1.40;99.90
21189;DHT22;39071;52.420;20.896;2023-04-03T01:41:25;1.20;99.90
21189;DHT22;39071;52.420;20.896;2023-04-03T01:43:51;1.20;99.90
21189;DHT22;39071;52.420;20.896;2023-04-03T01:46:17;1.20;99.90
21189;DHT22;39071;52.420;20.896;2023-04-03T01:48:43;1.10;99.90
21189;DHT22;39071;52.420;20.896;2023-04-03T01:51:09;1.10;99.90
21189;DHT22;39071;52.420;20.896;2023-04-03T01:53:35;1.10;99.90
21189;DHT22;39071;52.420;20.896;2023-04-03T01:56:01;1.10;99.90
21189;DHT22;39071;52.420;20.896;2023-04-03T01:58:27;1.10;99.90
21189;DHT22;39071;52.420;20.896;2023-04-03T02:00:53;1.00;99.90
21189;DHT22;39071;52.420;20.896;2023-04-03T02:03:19;1.00;99.90
21189;DHT22;39071;52.420;20.896;2023-04-03T02:05:45;0.90;99.90
21189;DHT22;39071;52.420;20.896;2023-04-03T02:08:11;0.90;99.90
21189;DHT22;39071;52.420;20.896;2023-04-03T02:10:37;0.80;99.90
21189;DHT22;39071;52.420;20.896;2023-04-03T02:13:02;0.80;99.90
21189;DHT22;39071;52.420;20.896;2023-04-03T02:15:28;0.70;99.90
21189;DHT22;39071;52.420;20.896;2023-04-03T02:17:54;0.80;99.90
21189;DHT22;39071;52.420;20.896;2023-04-03T02:20:20;0.80;99.90
21189;DHT22;39071;52.420;20.896;2023-04-03T02:22:45;0.80;99.90
21189;DHT22;39071;52.420;20.896;2023-04-03T02:25:11;0.80;99.90
21189;DHT22;39071;52.420;20.896;2023-04-03T02:27:38;0.70;99.90
21189;DHT22;39071;52.420;20.896;2023-04-03T02:30:04;0.70;99.90
21189;DHT22;39071;52.420;20.896;2023-04-03T02:32:31;0.70;99.90
21189;DHT22;39071;52.420;20.896;2023-04-03T02:34:56;0.70;99.90
21189;DHT22;39071;52.420;20.896;2023-04-03T02:37:22;0.70;99.90
21189;DHT22;39071;52.420;20.896;2023-04-03T02:39:48;0.60;99.90
21189;DHT22;39071;52.420;20.896;2023-04-03T02:42:14;0.60;99.90
21189;DHT22;39071;52.420;20.896;2023-04-03T02:44:40;0.50;99.90
21189;DHT22;39071;52.420;20.896;2023-04-03T02:47:05;0.50;99.90
21189;DHT22;39071;52.420;20.896;2023-04-03T02:49:31;0.40;99.90
21189;DHT22;39071;52.420;20.896;2023-04-03T02:51:57;0.50;99.90
21189;DHT22;39071;52.420;20.896;2023-04-03T02:54:23;0.40;99.90
21189;DHT22;39071;52.420;20.896;2023-04-03T02:56:50;0.40;99.90
21189;DHT22;39071;52.420;20.896;2023-04-03T02:59:15;0.40;99.90
21189;DHT22;39071;52.420;20.896;2023-04-03T03:01:41;0.40;99.90
21189;DHT22;39071;52.420;20.896;2023-04-03T03:04:07;0.40;99.90
21189;DHT22;39071;52.420;20.896;2023-04-03T03:06:33;0.30;99.90
21189;DHT22;39071;52.420;20.896;2023-04-03T03:08:58;0.30;99.90
21189;DHT22;39071;52.420;20.896;2023-04-03T03:11:25;0.30;99.90
21189;DHT22;39071;52.420;20.896;2023-04-03T03:13:51;0.30;99.90
21189;DHT22;39071;52.420;20.896;2023-04-03T03:16:17;0.20;99.90
21189;DHT22;39071;52.420;20.896;2023-04-03T03:18:43;0.20;99.90
21189;DHT22;39071;52.420;20.896;2023-04-03T03:21:09;0.20;99.90
21189;DHT22;39071;52.420;20.896;2023-04-03T03:23:35;0.20;99.90
21189;DHT22;39071;52.420;20.896;2023-04-03T03:26:07;0.10;99.90
21189;DHT22;39071;52.420;20.896;2023-04-03T03:28:34;0.10;99.90
21189;DHT22;39071;52.420;20.896;2023-04-03T03:31:00;0.10;99.90
21189;DHT22;39071;52.420;20.896;2023-04-03T03:33:26;0.10;99.90
21189;DHT22;39071;52.420;20.896;2023-04-03T03:35:52;0.10;99.90
21189;DHT22;39071;52.420;20.896;2023-04-03T03:38:19;0.10;99.90
21189;DHT22;39071;52.420;20.896;2023-04-03T03:40:47;0.10;99.90
21189;DHT22;39071;52.420;20.896;2023-04-03T03:43:13;0.10;99.90
21189;DHT22;39071;52.420;20.896;2023-04-03T03:45:39;0.10;99.90
21189;DHT22;39071;52.420;20.896;2023-04-03T03:48:05;0.00;99.90
21189;DHT22;39071;52.420;20.896;2023-04-03T03:50:31;0.00;99.90
21189;DHT22;39071;52.420;20.896;2023-04-03T03:52:56;0.00;1.00
21189;DHT22;39071;52.420;20.896;2023-04-03T03:55:22;0.00;99.90
21189;DHT22;39071;52.420;20.896;2023-04-03T03:57:48;-0.10;99.90
21189;DHT22;39071;52.420;20.896;2023-04-03T04:00:14;0.00;1.00
21189;DHT22;39071;52.420;20.896;2023-04-03T04:02:40;0.00;1.00
21189;DHT22;39071;52.420;20.896;2023-04-03T04:05:06;0.00;99.90
21189;DHT22;39071;52.420;20.896;2023-04-03T04:07:32;0.00;99.90
21189;DHT22;39071;52.420;20.896;2023-04-03T04:09:57;0.00;1.00
21189;DHT22;39071;52.420;20.896;2023-04-03T04:12:23;0.00;1.00
21189;DHT22;39071;52.420;20.896;2023-04-03T04:14:49;0.00;99.90
21189;DHT22;39071;52.420;20.896;2023-04-03T04:17:14;0.00;1.00
21189;DHT22;39071;52.420;20.896;2023-04-03T04:19:40;-0.10;99.90
21189;DHT22;39071;52.420;20.896;2023-04-03T04:22:06;0.00;1.00
21189;DHT22;39071;52.420;20.896;2023-04-03T04:24:32;0.00;99.90
21189;DHT22;39071;52.420;20.896;2023-04-03T04:26:58;0.00;99.90
21189;DHT22;39071;52.420;20.896;2023-04-03T04:29:24;0.00;99.90
21189;DHT22;39071;52.420;20.896;2023-04-03T04:31:50;0.10;99.90
21189;DHT22;39071;52.420;20.896;2023-04-03T04:34:15;0.10;99.90
21189;DHT22;39071;52.420;20.896;2023-04-03T04:36:41;0.10;99.90
21189;DHT22;39071;52.420;20.896;2023-04-03T04:39:07;0.20;99.90
21189;DHT22;39071;52.420;20.896;2023-04-03T04:41:33;0.30;99.90
21189;DHT22;39071;52.420;20.896;2023-04-03T04:44:00;0.40;99.90
21189;DHT22;39071;52.420;20.896;2023-04-03T04:46:26;0.50;99.90
21189;DHT22;39071;52.420;20.896;2023-04-03T04:48:52;0.70;99.90
21189;DHT22;39071;52.420;20.896;2023-04-03T04:51:18;1.80;99.90
21189;DHT22;39071;52.420;20.896;2023-04-03T04:53:43;3.10;92.50
21189;DHT22;39071;52.420;20.896;2023-04-03T04:56:10;3.00;14.50
21189;DHT22;39071;52.420;20.896;2023-04-03T04:58:35;3.10;11.00
21189;DHT22;39071;52.420;20.896;2023-04-03T05:01:06;3.00;1.00
21189;DHT22;39071;52.420;20.896;2023-04-03T05:03:32;3.50;1.00
21189;DHT22;39071;52.420;20.896;2023-04-03T05:05:58;4.90;1.00
21189;DHT22;39071;52.420;20.896;2023-04-03T05:08:24;6.10;1.00
21189;DHT22;39071;52.420;20.896;2023-04-03T05:10:50;6.10;1.00
21189;DHT22;39071;52.420;20.896;2023-04-03T05:13:16;5.60;1.00
21189;DHT22;39071;52.420;20.896;2023-04-03T05:15:42;4.60;1.00
21189;DHT22;39071;52.420;20.896;2023-04-03T05:18:08;3.90;1.00
21189;DHT22;39071;52.420;20.896;2023-04-03T05:20:34;3.60;1.00
21189;DHT22;39071;52.420;20.896;2023-04-03T05:23:00;3.50;1.00
21189;DHT22;39071;52.420;20.896;2023-04-03T05:25:26;4.10;1.00
21189;DHT22;39071;52.420;20.896;2023-04-03T05:27:51;4.30;1.00
21189;DHT22;39071;52.420;20.896;2023-04-03T05:30:17;4.00;1.00
21189;DHT22;39071;52.420;20.896;2023-04-03T05:32:43;3.30;1.00
21189;DHT22;39071;52.420;20.896;2023-04-03T05:35:09;3.20;1.00
21189;DHT22;39071;52.420;20.896;2023-04-03T05:37:35;3.40;1.00
21189;DHT22;39071;52.420;20.896;2023-04-03T05:40:02;3.30;1.00
21189;DHT22;39071;52.420;20.896;2023-04-03T05:42:28;3.40;1.00
21189;DHT22;39071;52.420;20.896;2023-04-03T05:44:55;3.80;1.00
21189;DHT22;39071;52.420;20.896;2023-04-03T05:47:21;4.00;1.00
21189;DHT22;39071;52.420;20.896;2023-04-03T05:49:47;4.60;1.00
21189;DHT22;39071;52.420;20.896;2023-04-03T05:52:27;6.70;1.00
21189;DHT22;39071;52.420;20.896;2023-04-03T05:54:53;8.60;1.00
21189;DHT22;39071;52.420;20.896;2023-04-03T05:57:19;9.10;1.00
21189;DHT22;39071;52.420;20.896;2023-04-03T05:59:46;10.50;1.00
21189;DHT22;39071;52.420;20.896;2023-04-03T06:02:14;10.70;1.00
21189;DHT22;39071;52.420;20.896;2023-04-03T06:04:40;11.10;1.00
21189;DHT22;39071;52.420;20.896;2023-04-03T06:07:08;9.90;1.00
21189;DHT22;39071;52.420;20.896;2023-04-03T06:09:36;8.30;1.00
21189;DHT22;39071;52.420;20.896;2023-04-03T06:12:01;7.10;1.00
21189;DHT22;39071;52.420;20.896;2023-04-03T06:14:27;6.60;1.00
21189;DHT22;39071;52.420;20.896;2023-04-03T06:16:53;6.80;1.00
21189;DHT22;39071;52.420;20.896;2023-04-03T06:19:20;6.70;1.00
21189;DHT22;39071;52.420;20.896;2023-04-03T06:21:46;6.80;1.00
21189;DHT22;39071;52.420;20.896;2023-04-03T06:24:15;7.80;1.00
21189;DHT22;39071;52.420;20.896;2023-04-03T06:26:41;7.70;1.00
21189;DHT22;39071;52.420;20.896;2023-04-03T06:29:07;7.40;1.00
21189;DHT22;39071;52.420;20.896;2023-04-03T06:31:33;7.50;1.00
21189;DHT22;39071;52.420;20.896;2023-04-03T06:34:00;7.00;1.00
21189;DHT22;39071;52.420;20.896;2023-04-03T06:36:26;7.50;1.00
21189;DHT22;39071;52.420;20.896;2023-04-03T06:38:52;6.60;1.00
21189;DHT22;39071;52.420;20.896;2023-04-03T06:41:18;6.10;1.00
21189;DHT22;39071;52.420;20.896;2023-04-03T06:43:44;5.90;1.00
21189;DHT22;39071;52.420;20.896;2023-04-03T06:46:15;6.10;1.00
21189;DHT22;39071;52.420;20.896;2023-04-03T06:48:41;6.50;1.00
21189;DHT22;39071;52.420;20.896;2023-04-03T06:51:19;6.30;1.00
21189;DHT22;39071;52.420;20.896;2023-04-03T06:53:47;6.30;1.00
21189;DHT22;39071;52.420;20.896;2023-04-03T06:56:13;6.10;1.00
21189;DHT22;39071;52.420;20.896;2023-04-03T06:58:40;6.30;1.00
21189;DHT22;39071;52.420;20.896;2023-04-03T07:01:06;6.00;1.00
21189;DHT22;39071;52.420;20.896;2023-04-03T07:03:31;5.80;1.00
21189;DHT22;39071;52.420;20.896;2023-04-03T07:05:57;5.80;1.00
21189;DHT22;39071;52.420;20.896;2023-04-03T07:08:23;6.40;1.00
21189;DHT22;39071;52.420;20.896;2023-04-03T07:10:51;6.30;1.00
21189;DHT22;39071;52.420;20.896;2023-04-03T07:13:16;6.40;1.00
21189;DHT22;39071;52.420;20.896;2023-04-03T07:15:42;6.20;1.00
21189;DHT22;39071;52.420;20.896;2023-04-03T07:18:08;6.30;1.00
21189;DHT22;39071;52.420;20.896;2023-04-03T07:20:34;6.30;1.00
21189;DHT22;39071;52.420;20.896;2023-04-03T07:22:59;6.20;1.00
21189;DHT22;39071;52.420;20.896;2023-04-03T07:25:28;6.10;1.00
21189;DHT22;39071;52.420;20.896;2023-04-03T07:27:54;5.90;1.00
21189;DHT22;39071;52.420;20.896;2023-04-03T07:30:20;5.50;1.00
21189;DHT22;39071;52.420;20.896;2023-04-03T07:32:46;5.60;1.00
21189;DHT22;39071;52.420;20.896;2023-04-03T07:35:12;5.50;1.00
21189;DHT22;39071;52.420;20.896;2023-04-03T07:37:38;5.70;1.00
21189;DHT22;39071;52.420;20.896;2023-04-03T07:40:04;5.80;1.00
21189;DHT22;39071;52.420;20.896;2023-04-03T07:42:31;5.80;1.00
21189;DHT22;39071;52.420;20.896;2023-04-03T07:44:57;6.00;1.00
21189;DHT22;39071;52.420;20.896;2023-04-03T07:47:22;6.10;1.00
21189;DHT22;39071;52.420;20.896;2023-04-03T07:49:48;6.30;1.00
21189;DHT22;39071;52.420;20.896;2023-04-03T07:52:14;6.10;1.00
21189;DHT22;39071;52.420;20.896;2023-04-03T07:54:41;6.10;1.00
21189;DHT22;39071;52.420;20.896;2023-04-03T07:57:07;6.10;1.00
21189;DHT22;39071;52.420;20.896;2023-04-03T07:59:33;6.10;1.00
21189;DHT22;39071;52.420;20.896;2023-04-03T08:01:59;5.90;1.00
21189;DHT22;39071;52.420;20.896;2023-04-03T08:04:25;5.70;1.00
21189;DHT22;39071;52.420;20.896;2023-04-03T08:06:52;5.70;1.00
21189;DHT22;39071;52.420;20.896;2023-04-03T08:09:18;5.40;1.00
21189;DHT22;39071;52.420;20.896;2023-04-03T08:11:45;5.40;1.00
21189;DHT22;39071;52.420;20.896;2023-04-03T08:14:12;5.50;1.00
21189;DHT22;39071;52.420;20.896;2023-04-03T08:16:43;5.60;1.00
21189;DHT22;39071;52.420;20.896;2023-04-03T08:19:09;5.70;1.00
21189;DHT22;39071;52.420;20.896;2023-04-03T08:21:36;5.80;1.00
21189;DHT22;39071;52.420;20.896;2023-04-03T08:24:02;5.80;1.00
21189;DHT22;39071;52.420;20.896;2023-04-03T08:26:28;6.00;1.00
21189;DHT22;39071;52.420;20.896;2023-04-03T08:28:54;6.10;1.00
21189;DHT22;39071;52.420;20.896;2023-04-03T08:31:20;6.70;1.00
21189;DHT22;39071;52.420;20.896;2023-04-03T08:33:46;6.80;1.00
21189;DHT22;39071;52.420;20.896;2023-04-03T08:36:21;6.60;1.00
21189;DHT22;39071;52.420;20.896;2023-04-03T08:38:48;6.70;1.00
21189;DHT22;39071;52.420;20.896;2023-04-03T08:41:34;6.60;1.00
21189;DHT22;39071;52.420;20.896;2023-04-03T08:44:14;6.40;1.00
21189;DHT22;39071;52.420;20.896;2023-04-03T08:47:01;6.50;1.00
21189;DHT22;39071;52.420;20.896;2023-04-03T08:49:42;6.60;1.00
21189;DHT22;39071;52.420;20.896;2023-04-03T08:52:24;6.90;1.00
21189;DHT22;39071;52.420;20.896;2023-04-03T08:54:57;7.20;1.00
21189;DHT22;39071;52.420;20.896;2023-04-03T08:57:41;7.40;1.00
21189;DHT22;39071;52.420;20.896;2023-04-03T09:00:21;7.10;1.00
21189;DHT22;39071;52.420;20.896;2023-04-03T09:02:49;6.80;1.00
21189;DHT22;39071;52.420;20.896;2023-04-03T09:07:58;7.00;1.00
21189;DHT22;39071;52.420;20.896;2023-04-03T09:10:28;6.90;1.00
21189;DHT22;39071;52.420;20.896;2023-04-03T09:15:49;7.20;1.00
21189;DHT22;39071;52.420;20.896;2023-04-03T09:18:16;7.40;1.00
21189;DHT22;39071;52.420;20.896;2023-04-03T09:21:24;7.30;1.00
21189;DHT22;39071;52.420;20.896;2023-04-03T09:23:57;6.60;1.00
21189;DHT22;39071;52.420;20.896;2023-04-03T09:26:38;6.80;1.00
21189;DHT22;39071;52.420;20.896;2023-04-03T09:29:07;6.70;1.00
21189;DHT22;39071;52.420;20.896;2023-04-03T09:31:39;6.70;1.00
21189;DHT22;39071;52.420;20.896;2023-04-03T09:34:22;6.70;1.00
21189;DHT22;39071;52.420;20.896;2023-04-03T09:36:53;7.10;1.00
21189;DHT22;39071;52.420;20.896;2023-04-03T09:39:22;7.30;1.00
21189;DHT22;39071;52.420;20.896;2023-04-03T09:42:03;7.50;1.00
21189;DHT22;39071;52.420;20.896;2023-04-03T09:44:38;7.40;1.00
21189;DHT22;39071;52.420;20.896;2023-04-03T09:47:21;7.50;1.00
21189;DHT22;39071;52.420;20.896;2023-04-03T09:49:49;7.10;1.00
21189;DHT22;39071;52.420;20.896;2023-04-03T09:52:25;7.20;1.00
21189;DHT22;39071;52.420;20.896;2023-04-03T09:54:52;6.90;1.00
21189;DHT22;39071;52.420;20.896;2023-04-03T09:57:18;6.50;1.00
21189;DHT22;39071;52.420;20.896;2023-04-03T09:59:59;6.40;1.00
21189;DHT22;39071;52.420;20.896;2023-04-03T10:02:39;6.90;1.00
21189;DHT22;39071;52.420;20.896;2023-04-03T10:05:31;6.90;1.00
21189;DHT22;39071;52.420;20.896;2023-04-03T10:10:43;7.00;1.00
21189;DHT22;39071;52.420;20.896;2023-04-03T10:13:17;6.40;1.00
21189;DHT22;39071;52.420;20.896;2023-04-03T10:16:17;6.10;1.00
21189;DHT22;39071;52.420;20.896;2023-04-03T10:18:50;6.80;1.00
21189;DHT22;39071;52.420;20.896;2023-04-03T10:21:48;7.40;1.00
21189;DHT22;39071;52.420;20.896;2023-04-03T10:27:13;6.20;1.00
21189;DHT22;39071;52.420;20.896;2023-04-03T10:33:07;6.40;1.00
21189;DHT22;39071;52.420;20.896;2023-04-03T10:38:39;7.40;1.00
21189;DHT22;39071;52.420;20.896;2023-04-03T10:41:07;7.40;1.00
21189;DHT22;39071;52.420;20.896;2023-04-03T10:46:49;6.70;1.00
21189;DHT22;39071;52.420;20.896;2023-04-03T10:49:49;6.70;1.00
21189;DHT22;39071;52.420;20.896;2023-04-03T10:52:47;7.30;1.00
21189;DHT22;39071;52.420;20.896;2023-04-03T10:57:59;6.60;1.00
21189;DHT22;39071;52.420;20.896;2023-04-03T11:03:03;7.00;1.00
21189;DHT22;39071;52.420;20.896;2023-04-03T11:05:45;6.60;1.00
21189;DHT22;39071;52.420;20.896;2023-04-03T11:08:28;6.30;1.00
21189;DHT22;39071;52.420;20.896;2023-04-03T11:11:00;6.50;1.00
21189;DHT22;39071;52.420;20.896;2023-04-03T11:13:57;7.00;1.00
21189;DHT22;39071;52.420;20.896;2023-04-03T11:16:33;7.00;1.00
21189;DHT22;39071;52.420;20.896;2023-04-03T11:22:03;6.60;1.00
21189;DHT22;39071;52.420;20.896;2023-04-03T11:24:33;6.60;1.00
21189;DHT22;39071;52.420;20.896;2023-04-03T11:27:02;6.90;1.00
21189;DHT22;39071;52.420;20.896;2023-04-03T11:29:35;7.10;1.00
21189;DHT22;39071;52.420;20.896;2023-04-03T11:34:56;6.70;1.00
21189;DHT22;39071;52.420;20.896;2023-04-03T11:40:06;7.10;1.00
21189;DHT22;39071;52.420;20.896;2023-04-03T11:42:42;7.20;1.00
21189;DHT22;39071;52.420;20.896;2023-04-03T11:47:50;7.00;1.00
21189;DHT22;39071;52.420;20.896;2023-04-03T12:08:43;8.30;1.00
21189;DHT22;39071;52.420;20.896;2023-04-03T12:17:11;7.80;1.00
21189;DHT22;39071;52.420;20.896;2023-04-03T12:28:57;7.20;1.00
21189;DHT22;39071;52.420;20.896;2023-04-03T12:31:25;6.40;1.00
21189;DHT22;39071;52.420;20.896;2023-04-03T12:34:24;6.40;1.00
21189;DHT22;39071;52.420;20.896;2023-04-03T12:37:00;6.90;1.00
21189;DHT22;39071;52.420;20.896;2023-04-03T12:40:07;7.30;1.00
21189;DHT22;39071;52.420;20.896;2023-04-03T12:45:19;6.70;1.00
21189;DHT22;39071;52.420;20.896;2023-04-03T12:47:45;6.70;1.00
21189;DHT22;39071;52.420;20.896;2023-04-03T12:50:22;6.70;1.00
21189;DHT22;39071;52.420;20.896;2023-04-03T12:53:15;6.70;1.00
21189;DHT22;39071;52.420;20.896;2023-04-03T12:55:42;6.50;1.00
21189;DHT22;39071;52.420;20.896;2023-04-03T13:01:03;6.90;1.00
21189;DHT22;39071;52.420;20.896;2023-04-03T13:03:29;6.80;1.00
21189;DHT22;39071;52.420;20.896;2023-04-03T13:06:02;6.90;1.00
21189;DHT22;39071;52.420;20.896;2023-04-03T13:08:29;8.90;1.00
21189;DHT22;39071;52.420;20.896;2023-04-03T13:11:10;7.20;1.00
21189;DHT22;39071;52.420;20.896;2023-04-03T13:13:37;7.20;1.00
21189;DHT22;39071;52.420;20.896;2023-04-03T13:16:11;7.00;1.00
21189;DHT22;39071;52.420;20.896;2023-04-03T13:18:39;6.70;1.00
21189;DHT22;39071;52.420;20.896;2023-04-03T13:23:57;6.70;1.00
21189;DHT22;39071;52.420;20.896;2023-04-03T13:26:27;6.50;1.00
21189;DHT22;39071;52.420;20.896;2023-04-03T13:29:05;6.40;1.00
21189;DHT22;39071;52.420;20.896;2023-04-03T13:31:34;6.60;1.00
21189;DHT22;39071;52.420;20.896;2023-04-03T13:36:43;6.60;1.00
21189;DHT22;39071;52.420;20.896;2023-04-03T13:41:41;7.00;1.00
21189;DHT22;39071;52.420;20.896;2023-04-03T13:46:53;6.90;1.00
21189;DHT22;39071;52.420;20.896;2023-04-03T13:49:33;6.90;1.00
21189;DHT22;39071;52.420;20.896;2023-04-03T13:52:00;6.50;1.00
21189;DHT22;39071;52.420;20.896;2023-04-03T13:54:38;6.40;1.00
21189;DHT22;39071;52.420;20.896;2023-04-03T13:57:16;6.40;1.00
21189;DHT22;39071;52.420;20.896;2023-04-03T13:59:42;6.30;1.00
21189;DHT22;39071;52.420;20.896;2023-04-03T14:07:06;6.40;1.00
21189;DHT22;39071;52.420;20.896;2023-04-03T14:09:31;6.40;1.00
21189;DHT22;39071;52.420;20.896;2023-04-03T14:12:02;6.20;1.00
21189;DHT22;39071;52.420;20.896;2023-04-03T14:14:33;6.20;1.00
21189;DHT22;39071;52.420;20.896;2023-04-03T14:17:03;6.20;1.00
21189;DHT22;39071;52.420;20.896;2023-04-03T14:19:35;6.20;1.00
21189;DHT22;39071;52.420;20.896;2023-04-03T14:22:13;6.20;1.00
21189;DHT22;39071;52.420;20.896;2023-04-03T14:24:39;6.10;1.00
21189;DHT22;39071;52.420;20.896;2023-04-03T14:27:21;6.30;1.00
21189;DHT22;39071;52.420;20.896;2023-04-03T14:29:48;6.30;1.00
21189;DHT22;39071;52.420;20.896;2023-04-03T14:32:17;6.30;1.00
21189;DHT22;39071;52.420;20.896;2023-04-03T14:34:44;6.20;1.00
21189;DHT22;39071;52.420;20.896;2023-04-03T14:37:16;6.20;1.00
21189;DHT22;39071;52.420;20.896;2023-04-03T14:39:42;6.00;1.00
21189;DHT22;39071;52.420;20.896;2023-04-03T14:42:21;5.90;1.00
21189;DHT22;39071;52.420;20.896;2023-04-03T14:44:47;6.00;1.00
21189;DHT22;39071;52.420;20.896;2023-04-03T14:47:15;6.10;1.00
21189;DHT22;39071;52.420;20.896;2023-04-03T14:49:42;6.10;1.00
21189;DHT22;39071;52.420;20.896;2023-04-03T14:52:25;6.00;1.00
21189;DHT22;39071;52.420;20.896;2023-04-03T14:54:52;6.10;1.00
21189;DHT22;39071;52.420;20.896;2023-04-03T14:57:18;6.10;1.00
21189;DHT22;39071;52.420;20.896;2023-04-03T14:59:45;6.20;1.00
21189;DHT22;39071;52.420;20.896;2023-04-03T15:02:26;6.20;1.00
21189;DHT22;39071;52.420;20.896;2023-04-03T15:04:56;6.10;1.00
21189;DHT22;39071;52.420;20.896;2023-04-03T15:07:24;6.00;1.00
21189;DHT22;39071;52.420;20.896;2023-04-03T15:09:50;6.00;1.00
21189;DHT22;39071;52.420;20.896;2023-04-03T15:12:17;5.90;1.00
21189;DHT22;39071;52.420;20.896;2023-04-03T15:14:43;5.80;1.00
21189;DHT22;39071;52.420;20.896;2023-04-03T15:17:15;5.90;1.00
21189;DHT22;39071;52.420;20.896;2023-04-03T15:19:41;5.80;1.00
21189;DHT22;39071;52.420;20.896;2023-04-03T15:22:13;5.90;1.00
21189;DHT22;39071;52.420;20.896;2023-04-03T15:24:39;5.90;1.00
21189;DHT22;39071;52.420;20.896;2023-04-03T15:27:05;5.90;1.00
21189;DHT22;39071;52.420;20.896;2023-04-03T15:29:31;5.80;1.00
21189;DHT22;39071;52.420;20.896;2023-04-03T15:31:57;5.90;1.00
21189;DHT22;39071;52.420;20.896;2023-04-03T15:34:22;5.80;1.00
21189;DHT22;39071;52.420;20.896;2023-04-03T15:36:49;5.80;1.00
21189;DHT22;39071;52.420;20.896;2023-04-03T15:39:14;5.70;1.00
21189;DHT22;39071;52.420;20.896;2023-04-03T15:41:41;5.50;1.00
21189;DHT22;39071;52.420;20.896;2023-04-03T15:44:07;5.50;1.00
21189;DHT22;39071;52.420;20.896;2023-04-03T15:46:33;5.50;1.00
21189;DHT22;39071;52.420;20.896;2023-04-03T15:48:59;5.60;1.00
21189;DHT22;39071;52.420;20.896;2023-04-03T15:51:25;5.50;1.00
21189;DHT22;39071;52.420;20.896;2023-04-03T15:53:50;5.50;1.00
21189;DHT22;39071;52.420;20.896;2023-04-03T15:56:16;5.40;1.00
21189;DHT22;39071;52.420;20.896;2023-04-03T15:58:42;5.40;1.00
21189;DHT22;39071;52.420;20.896;2023-04-03T16:01:09;5.40;1.00
21189;DHT22;39071;52.420;20.896;2023-04-03T16:03:36;5.40;1.00
21189;DHT22;39071;52.420;20.896;2023-04-03T16:06:04;5.50;1.00
21189;DHT22;39071;52.420;20.896;2023-04-03T16:08:30;5.50;1.00
21189;DHT22;39071;52.420;20.896;2023-04-03T16:10:56;5.50;1.00
21189;DHT22;39071;52.420;20.896;2023-04-03T16:13:21;5.50;1.00
21189;DHT22;39071;52.420;20.896;2023-04-03T16:15:47;5.60;1.00
21189;DHT22;39071;52.420;20.896;2023-04-03T16:18:14;5.40;1.00
21189;DHT22;39071;52.420;20.896;2023-04-03T16:20:40;5.40;1.00
21189;DHT22;39071;52.420;20.896;2023-04-03T16:23:06;5.30;1.00
21189;DHT22;39071;52.420;20.896;2023-04-03T16:25:32;5.20;1.00
21189;DHT22;39071;52.420;20.896;2023-04-03T16:27:58;5.20;1.00
21189;DHT22;39071;52.420;20.896;2023-04-03T16:30:23;5.20;1.00
21189;DHT22;39071;52.420;20.896;2023-04-03T16:32:51;5.10;1.00
21189;DHT22;39071;52.420;20.896;2023-04-03T16:35:17;5.10;1.00
21189;DHT22;39071;52.420;20.896;2023-04-03T16:37:42;5.10;1.00
21189;DHT22;39071;52.420;20.896;2023-04-03T16:40:09;5.10;1.00
21189;DHT22;39071;52.420;20.896;2023-04-03T16:42:35;5.00;1.00
21189;DHT22;39071;52.420;20.896;2023-04-03T16:45:01;5.00;1.00
21189;DHT22;39071;52.420;20.896;2023-04-03T16:47:29;5.00;1.00
21189;DHT22;39071;52.420;20.896;2023-04-03T16:49:55;5.00;1.00
21189;DHT22;39071;52.420;20.896;2023-04-03T16:52:21;4.90;1.00
21189;DHT22;39071;52.420;20.896;2023-04-03T16:54:46;4.90;1.00
21189;DHT22;39071;52.420;20.896;2023-04-03T16:57:12;4.80;1.00
21189;DHT22;39071;52.420;20.896;2023-04-03T16:59:38;4.90;1.00
21189;DHT22;39071;52.420;20.896;2023-04-03T17:02:04;4.80;1.00
21189;DHT22;39071;52.420;20.896;2023-04-03T17:04:30;4.90;1.00
21189;DHT22;39071;52.420;20.896;2023-04-03T17:06:56;4.90;1.00
21189;DHT22;39071;52.420;20.896;2023-04-03T17:09:22;4.90;1.00
21189;DHT22;39071;52.420;20.896;2023-04-03T17:11:48;4.80;1.00
21189;DHT22;39071;52.420;20.896;2023-04-03T17:14:14;4.80;1.00
21189;DHT22;39071;52.420;20.896;2023-04-03T17:16:40;4.70;1.00
21189;DHT22;39071;52.420;20.896;2023-04-03T17:19:06;4.70;1.00
21189;DHT22;39071;52.420;20.896;2023-04-03T17:21:32;4.70;1.00
21189;DHT22;39071;52.420;20.896;2023-04-03T17:24:02;4.60;1.00
21189;DHT22;39071;52.420;20.896;2023-04-03T17:26:29;4.60;1.00
21189;DHT22;39071;52.420;20.896;2023-04-03T17:28:55;4.50;1.00
21189;DHT22;39071;52.420;20.896;2023-04-03T17:31:22;4.50;1.00